Terminal Aerodrome Forecast
Issued by NWS Green Bay, WI

Home | Current Version | Previous Version | Text Only | Print | Product List | Glossary Off
Versions: 1 2 3 4 5 6 7 8 9 10 11 12 13 14 15 16 17 18 19 20 21 22 23 24 25 26 27 28 29 30 31 32 33 34 35

000
FTUS43 KGRB 262104 AAC
TAFGRB
TAF AMD
KGRB 262104Z 2621/2718 12011G16KT 1 1/2SM -RA BR BKN008 OVC015
      TEMPO 2621/2622 3SM BR
     FM262200 15010G16KT 4SM BR SCT008 BKN015 OVC040 WS020/18030KT
      TEMPO 2622/2623 BKN008
     FM270100 23009G15KT 4SM -DZ BR SCT006 BKN012 WS020/22040KT
      TEMPO 2701/2703 2SM SHRA BR
     FM270800 24012G20KT P6SM SCT025 OVC040
     FM271500 28011G18KT P6SM VCSH BKN018=

USA.gov is the U.S. government's official web portal to all federal, state and local government web resources and services.